Time;durP1;ratioP1;P1;durP2;ratioP2;P2;SDS_P1;SDS_P2;PMS_P1;PMS_P2;Temp;Humidity;BMP_temperature;BMP_pressure;BME280_temperature;BME280_humidity;BME280_pressure;Samples;Min_cycle;Max_cycle;Signal;HPM_P1;HPM_P2
2022/06/02 00:02:27;;;;;;;;;;;;;;;16.91;100.00;99173.38;5030702;28;19921;-41
2022/06/02 00:05:03;;;;;;;;;;;;;;;16.86;100.00;99180.59;5010353;28;19969;-41
2022/06/02 00:07:30;;;;;;;;;;;;;;;16.87;100.00;99182.25;5003466;28;19932;-41
2022/06/02 00:10:13;;;;;;;;;;;;;;;17.03;100.00;99183.09;5031950;28;19921;-41
2022/06/02 00:12:38;;;;;;;;;;;;;;;17.01;100.00;99179.72;5031516;28;20299;-41
2022/06/02 00:15:26;;;;;;;;;;;;;;;16.90;100.00;99187.28;5027555;28;19948;-41
2022/06/02 00:18:03;;;;;;;;;;;;;;;16.85;100.00;99184.09;5033388;28;19976;-41
2022/06/02 00:20:38;;;;;;;;;;;;;;;16.72;100.00;99189.13;5031222;28;20394;-41
2022/06/02 00:23:12;;;;;;;;;;;;;;;16.63;100.00;99185.25;5010257;28;20408;-41
2022/06/02 00:25:44;;;;;;;;;;;;;;;16.69;100.00;99187.53;5016589;28;19925;-40
2022/06/02 00:28:09;;;;;;;;;;;;;;;16.29;100.00;99189.66;5030122;28;19964;-41
2022/06/02 00:30:36;;;;;;;;;;;;;;;16.69;100.00;99176.28;5030569;28;20012;-41
2022/06/02 00:33:16;;;;;;;;;;;;;;;16.57;100.00;99189.94;5004584;28;19999;-41
2022/06/02 00:35:42;;;;;;;;;;;;;;;16.48;100.00;99188.66;5028081;28;19920;-41
2022/06/02 00:38:11;;;;;;;;;;;;;;;16.59;100.00;99188.94;5010363;28;19927;-41
2022/06/02 00:40:36;;;;;;;;;;;;;;;16.74;100.00;99187.28;5027321;28;19928;-41
2022/06/02 00:43:05;;;;;;;;;;;;;;;16.56;100.00;99194.31;5015220;28;19920;-41
2022/06/02 00:45:30;;;;;;;;;;;;;;;16.44;100.00;99200.16;5025364;28;20649;-41
2022/06/02 00:48:06;;;;;;;;;;;;;;;16.62;100.00;99198.34;5009156;28;19921;-41
2022/06/02 00:50:40;;;;;;;;;;;;;;;16.75;100.00;99198.53;5030891;28;19921;-41
2022/06/02 00:53:05;;;;;;;;;;;;;;;16.75;100.00;99199.34;5026373;28;20459;-41
2022/06/02 00:58:42;;;;;;;;;;;;;;;16.53;100.00;99217.84;5026966;28;19928;-41
2022/06/02 01:01:39;;;;;;;;;;;;;;;16.42;100.00;99217.59;5012824;28;19921;-41
2022/06/02 01:04:08;;;;;;;;;;;;;;;16.55;100.00;99218.63;4999076;28;19990;-41
2022/06/02 01:06:33;;;;;;;;;;;;;;;16.58;100.00;99223.69;5005728;28;19978;-41
2022/06/02 01:09:05;;;;;;;;;;;;;;;16.56;100.00;99225.50;5027572;28;19920;-41
2022/06/02 01:11:50;;;;;;;;;;;;;;;16.35;100.00;99227.44;5028897;28;20430;-41
2022/06/02 01:14:20;;;;;;;;;;;;;;;16.41;100.00;99221.94;5011830;28;19925;-41
2022/06/02 01:16:51;;;;;;;;;;;;;;;16.35;100.00;99224.03;5030381;28;19917;-41
2022/06/02 01:19:35;;;;;;;;;;;;;;;16.30;100.00;99219.91;5028750;28;20386;-41
2022/06/02 01:22:00;;;;;;;;;;;;;;;16.30;100.00;99219.06;5029794;28;19920;-41
2022/06/02 01:24:34;;;;;;;;;;;;;;;16.25;100.00;99224.50;5027291;28;20562;-41
2022/06/02 01:27:06;;;;;;;;;;;;;;;16.37;100.00;99224.78;5028073;28;19924;-41
2022/06/02 01:29:31;;;;;;;;;;;;;;;16.27;100.00;99225.25;5014328;28;19921;-41
2022/06/02 01:31:57;;;;;;;;;;;;;;;16.20;100.00;99218.72;5027655;28;19928;-41
2022/06/02 01:34:26;;;;;;;;;;;;;;;16.10;100.00;99223.53;5010785;28;20310;-41
2022/06/02 01:37:20;;;;;;;;;;;;;;;16.15;100.00;99223.31;5011739;28;19920;-41
2022/06/02 01:39:46;;;;;;;;;;;;;;;16.13;100.00;99225.16;5013409;28;19924;-41
2022/06/02 01:42:17;;;;;;;;;;;;;;;16.19;100.00;99227.41;5024684;28;19998;-41
2022/06/02 01:45:01;;;;;;;;;;;;;;;16.20;100.00;99228.28;5025203;28;19962;-41
2022/06/02 01:47:29;;;;;;;;;;;;;;;16.24;100.00;99224.59;5024817;28;19927;-41
2022/06/02 01:49:54;;;;;;;;;;;;;;;16.12;100.00;99226.03;5010070;28;20045;-41
2022/06/02 01:52:19;;;;;;;;;;;;;;;15.99;100.00;99225.84;5025668;28;19992;-41
2022/06/02 01:54:50;;;;;;;;;;;;;;;16.11;100.00;99224.38;5026040;28;19967;-41
2022/06/02 01:57:16;;;;;;;;;;;;;;;15.99;100.00;99225.84;5026526;28;19921;-41
2022/06/02 01:59:48;;;;;;;;;;;;;;;15.93;100.00;99231.34;5028158;28;19921;-41
2022/06/02 02:02:32;;;;;;;;;;;;;;;15.93;100.00;99235.72;5028960;28;19955;-41
2022/06/02 02:05:16;;;;;;;;;;;;;;;16.02;100.00;99237.84;5025220;28;20365;-41
2022/06/02 02:07:50;;;;;;;;;;;;;;;16.05;100.00;99237.69;5030828;28;19917;-41
2022/06/02 02:10:33;;;;;;;;;;;;;;;16.00;100.00;99235.31;5024195;28;19921;-41
2022/06/02 02:13:16;;;;;;;;;;;;;;;15.88;100.00;99239.38;5025873;28;20019;-41
2022/06/02 02:15:42;;;;;;;;;;;;;;;15.70;100.00;99232.47;5026627;28;19924;-41
2022/06/02 02:18:40;;;;;;;;;;;;;;;15.36;100.00;99244.47;5024968;28;20379;-40
2022/06/02 02:21:20;;;;;;;;;;;;;;;15.18;100.00;99241.00;5007308;28;19936;-41
2022/06/02 02:24:08;;;;;;;;;;;;;;;15.05;100.00;99243.34;5028123;28;20317;-41
2022/06/02 02:26:42;;;;;;;;;;;;;;;15.28;100.00;99251.81;5016173;28;19921;-41
2022/06/02 02:29:18;;;;;;;;;;;;;;;15.16;100.00;99244.56;5008724;28;19921;-41
2022/06/02 02:31:51;;;;;;;;;;;;;;;15.12;100.00;99248.22;5008587;28;20015;-40
2022/06/02 02:34:23;;;;;;;;;;;;;;;15.13;100.00;99250.75;5012173;28;19991;-41
2022/06/02 02:36:57;;;;;;;;;;;;;;;15.27;100.00;99253.53;5025303;28;19987;-41
2022/06/02 02:39:31;;;;;;;;;;;;;;;15.33;100.00;99249.81;5027157;28;20366;-40
2022/06/02 02:42:05;;;;;;;;;;;;;;;15.34;100.00;99259.28;5021580;28;19925;-40
2022/06/02 02:44:35;;;;;;;;;;;;;;;15.48;100.00;99251.66;5005999;28;19964;-41
2022/06/02 02:47:20;;;;;;;;;;;;;;;15.46;100.00;99258.72;5009605;28;19927;-41
2022/06/02 02:49:49;;;;;;;;;;;;;;;15.55;100.00;99254.81;5024086;28;19916;-41
2022/06/02 02:52:19;;;;;;;;;;;;;;;15.41;100.00;99260.66;5026401;28;19924;-41
2022/06/02 02:54:51;;;;;;;;;;;;;;;15.37;100.00;99261.75;4995288;28;19921;-41
2022/06/02 02:57:25;;;;;;;;;;;;;;;15.56;100.00;99266.88;5027255;28;19948;-40
2022/06/02 02:59:56;;;;;;;;;;;;;;;15.64;100.00;99267.34;5028653;28;20313;-40
2022/06/02 03:02:28;;;;;;;;;;;;;;;15.39;100.00;99267.69;5029120;28;19950;-40
2022/06/02 03:04:57;;;;;;;;;;;;;;;15.47;100.00;99265.56;5020312;28;19920;-40
2022/06/02 03:07:22;;;;;;;;;;;;;;;15.41;100.00;99265.84;5029862;28;19925;-40
2022/06/02 03:09:56;;;;;;;;;;;;;;;15.41;100.00;99258.06;5031526;28;19927;-40
2022/06/02 03:12:27;;;;;;;;;;;;;;;15.48;100.00;99258.63;5029773;28;20311;-40
2022/06/02 03:14:56;;;;;;;;;;;;;;;15.38;100.00;99263.41;5029763;28;19920;-40
2022/06/02 03:17:25;;;;;;;;;;;;;;;15.41;100.00;99259.81;5011167;28;19921;-40
2022/06/02 03:19:55;;;;;;;;;;;;;;;15.47;100.00;99259.53;5008187;28;19920;-40
2022/06/02 03:22:45;;;;;;;;;;;;;;;15.42;100.00;99270.16;5009845;28;19921;-41
2022/06/02 03:25:14;;;;;;;;;;;;;;;15.32;100.00;99273.25;5023708;28;20012;-40
2022/06/02 03:27:43;;;;;;;;;;;;;;;15.37;100.00;99274.72;5009505;28;19924;-40
2022/06/02 03:30:15;;;;;;;;;;;;;;;15.36;100.00;99278.22;5008888;28;19944;-40
2022/06/02 03:32:40;;;;;;;;;;;;;;;15.31;100.00;99279.34;5030564;28;19921;-40
2022/06/02 03:35:24;;;;;;;;;;;;;;;15.38;100.00;99281.56;5028113;28;20003;-40
2022/06/02 03:38:15;;;;;;;;;;;;;;;15.25;100.00;99281.31;5028748;28;19928;-40
2022/06/02 03:41:00;;;;;;;;;;;;;;;15.26;100.00;99287.34;5028000;28;19925;-40
2022/06/02 03:43:30;;;;;;;;;;;;;;;15.17;100.00;99296.41;5026076;28;20369;-40
2022/06/02 03:46:00;;;;;;;;;;;;;;;15.23;100.00;99295.25;5013205;28;19925;-40
2022/06/02 03:48:44;;;;;;;;;;;;;;;15.28;100.00;99288.13;5029798;28;20048;-40
2022/06/02 03:51:17;;;;;;;;;;;;;;;15.29;100.00;99297.59;5029875;28;20385;-40
2022/06/02 03:53:52;;;;;;;;;;;;;;;15.26;100.00;99297.72;5030994;28;19925;-40
2022/06/02 03:56:20;;;;;;;;;;;;;;;15.41;100.00;99304.78;5029827;28;19982;-40
2022/06/02 03:58:52;;;;;;;;;;;;;;;15.48;100.00;99303.56;5029790;28;19921;-40
2022/06/02 04:01:18;;;;;;;;;;;;;;;15.48;100.00;99311.34;5012617;28;19983;-40
2022/06/02 04:03:47;;;;;;;;;;;;;;;15.59;100.00;99315.22;5033229;28;19916;-40
2022/06/02 04:06:31;;;;;;;;;;;;;;;15.63;100.00;99316.75;5029454;28;19917;-40
2022/06/02 04:09:06;;;;;;;;;;;;;;;15.80;100.00;99319.41;5011505;28;20122;-40
2022/06/02 04:14:56;;;;;;;;;;;;;;;15.92;100.00;99314.53;5029223;28;19994;-40
2022/06/02 04:17:26;;;;;;;;;;;;;;;16.06;100.00;99319.91;5026295;28;19917;-40
2022/06/02 04:22:53;;;;;;;;;;;;;;;16.28;100.00;99323.13;5025298;28;19937;-40
2022/06/02 04:25:33;;;;;;;;;;;;;;;16.32;100.00;99326.38;5019060;28;19925;-40
2022/06/02 04:28:10;;;;;;;;;;;;;;;16.51;100.00;99327.16;5011779;28;20706;-40
2022/06/02 04:30:41;;;;;;;;;;;;;;;16.45;100.00;99324.84;5029589;28;19921;-40
2022/06/02 04:33:08;;;;;;;;;;;;;;;16.46;100.00;99333.47;5008187;28;19925;-40
2022/06/02 04:35:57;;;;;;;;;;;;;;;16.62;100.00;99336.97;5011480;28;19921;-40
2022/06/02 04:38:29;;;;;;;;;;;;;;;16.78;100.00;99333.59;5014209;28;20024;-40
2022/06/02 04:40:54;;;;;;;;;;;;;;;16.92;100.00;99334.59;5011548;28;19925;-40
2022/06/02 04:43:20;;;;;;;;;;;;;;;16.89;100.00;99339.94;5032048;28;20669;-40
2022/06/02 04:46:04;;;;;;;;;;;;;;;17.16;100.00;99339.41;5032541;28;20279;-40
2022/06/02 04:48:58;;;;;;;;;;;;;;;17.08;100.00;99347.63;5035717;28;20408;-40
2022/06/02 04:51:26;;;;;;;;;;;;;;;17.19;100.00;99359.22;5017961;28;20000;-40
2022/06/02 04:53:54;;;;;;;;;;;;;;;17.32;100.00;99355.88;5032187;28;19925;-40
2022/06/02 04:56:30;;;;;;;;;;;;;;;17.40;100.00;99365.03;5036152;28;19936;-40
2022/06/02 04:58:59;;;;;;;;;;;;;;;17.18;100.00;99365.34;5013800;28;19923;-40
2022/06/02 05:01:43;;;;;;;;;;;;;;;17.54;100.00;99370.34;5028917;28;20031;-40
2022/06/02 05:04:10;;;;;;;;;;;;;;;17.28;100.00;99369.97;5031534;28;20002;-40
2022/06/02 05:06:37;;;;;;;;;;;;;;;17.64;100.00;99373.28;5015827;28;19917;-40
2022/06/02 05:09:05;;;;;;;;;;;;;;;17.95;100.00;99365.47;5015819;28;20009;-40
2022/06/02 05:11:43;;;;;;;;;;;;;;;17.81;100.00;99373.19;5013485;28;19912;-40
2022/06/02 05:14:24;;;;;;;;;;;;;;;17.73;100.00;99375.38;5014603;28;19920;-40
2022/06/02 05:17:04;;;;;;;;;;;;;;;18.06;100.00;99384.84;5031957;28;19921;-40
2022/06/02 05:19:32;;;;;;;;;;;;;;;18.42;100.00;99381.91;5013130;28;20004;-40
2022/06/02 05:21:58;;;;;;;;;;;;;;;18.45;100.00;99378.25;5012097;28;21020;-40
2022/06/02 05:24:41;;;;;;;;;;;;;;;18.14;100.00;99380.88;5032668;28;19918;-40
2022/06/02 05:27:16;;;;;;;;;;;;;;;18.24;100.00;99386.41;5029190;28;20187;-40
2022/06/02 05:30:01;;;;;;;;;;;;;;;18.49;100.00;99377.16;5029293;28;19916;-40
2022/06/02 05:32:36;;;;;;;;;;;;;;;17.68;100.00;99393.84;5033707;28;19947;-40
2022/06/02 05:35:20;;;;;;;;;;;;;;;18.31;100.00;99395.53;5011583;28;19916;-40
2022/06/02 05:37:48;;;;;;;;;;;;;;;17.88;100.00;99395.41;5034804;28;19948;-40
2022/06/02 05:40:13;;;;;;;;;;;;;;;17.41;100.00;99416.19;5031679;28;19916;-40
2022/06/02 05:42:43;;;;;;;;;;;;;;;17.97;100.00;99414.88;5030119;28;20408;-40
2022/06/02 05:45:14;;;;;;;;;;;;;;;18.54;100.00;99409.03;5010017;28;20019;-40
2022/06/02 05:47:52;;;;;;;;;;;;;;;18.29;100.00;99415.69;5033690;28;19917;-40
2022/06/02 05:50:30;;;;;;;;;;;;;;;18.63;100.00;99400.66;5031210;28;19917;-40
2022/06/02 05:53:09;;;;;;;;;;;;;;;18.54;100.00;99409.88;5026866;28;20325;-40
2022/06/02 05:55:46;;;;;;;;;;;;;;;19.16;100.00;99406.25;5008854;28;20299;-40
2022/06/02 05:58:14;;;;;;;;;;;;;;;19.24;100.00;99409.22;5027464;28;19917;-40
2022/06/02 06:00:45;;;;;;;;;;;;;;;19.21;100.00;99402.44;5032044;28;19924;-40
2022/06/02 06:03:24;;;;;;;;;;;;;;;19.38;100.00;99411.81;5029088;28;19917;-41
2022/06/02 06:05:53;;;;;;;;;;;;;;;18.69;100.00;99415.97;5016432;28;19928;-40
2022/06/02 06:08:29;;;;;;;;;;;;;;;19.33;100.00;99410.44;5004811;28;19932;-40
2022/06/02 06:10:55;;;;;;;;;;;;;;;18.77;100.00;99405.94;5030181;28;19923;-40
2022/06/02 06:13:26;;;;;;;;;;;;;;;18.01;100.00;99410.34;5033506;28;19921;-40
2022/06/02 06:15:58;;;;;;;;;;;;;;;19.45;100.00;99399.22;5011800;28;19946;-40
2022/06/02 06:18:26;;;;;;;;;;;;;;;18.97;100.00;99412.56;5033316;28;19916;-40
2022/06/02 06:20:54;;;;;;;;;;;;;;;19.43;100.00;99403.69;5034183;28;19917;-40
2022/06/02 06:23:34;;;;;;;;;;;;;;;18.54;100.00;99401.19;5028850;28;19920;-40
2022/06/02 06:25:59;;;;;;;;;;;;;;;19.47;100.00;99397.34;5029529;28;19939;-39
2022/06/02 06:28:25;;;;;;;;;;;;;;;18.81;100.00;99409.19;5034120;28;19916;-40
2022/06/02 06:30:58;;;;;;;;;;;;;;;19.05;100.00;99406.91;5014263;28;19940;-40
2022/06/02 06:33:29;;;;;;;;;;;;;;;19.46;100.00;99403.53;5009220;28;19921;-40
2022/06/02 06:35:54;;;;;;;;;;;;;;;20.67;100.00;99393.13;5009177;28;20919;-39
2022/06/02 06:38:38;;;;;;;;;;;;;;;20.49;100.00;99394.31;5027975;28;19917;-39
2022/06/02 06:41:21;;;;;;;;;;;;;;;20.44;100.00;99405.09;5035601;28;19927;-40
2022/06/02 06:43:49;;;;;;;;;;;;;;;20.45;100.00;99408.53;5032478;28;19917;-40
2022/06/02 06:46:36;;;;;;;;;;;;;;;20.85;100.00;99401.50;5028197;28;20008;-39
2022/06/02 06:49:04;;;;;;;;;;;;;;;20.19;100.00;99408.47;5030059;28;19943;-39
2022/06/02 06:51:38;;;;;;;;;;;;;;;20.74;100.00;99405.78;5027867;28;19920;-39
2022/06/02 06:54:21;;;;;;;;;;;;;;;20.31;100.00;99412.06;5014818;28;19935;-39
2022/06/02 06:56:57;;;;;;;;;;;;;;;21.48;100.00;99409.41;5013389;28;20013;-39
2022/06/02 06:59:29;;;;;;;;;;;;;;;21.14;100.00;99410.91;5032070;28;20390;-39
2022/06/02 07:01:57;;;;;;;;;;;;;;;20.18;100.00;99419.88;5030042;28;19924;-39
2022/06/02 07:04:22;;;;;;;;;;;;;;;20.32;100.00;99421.59;5031504;28;19917;-39
2022/06/02 07:06:50;;;;;;;;;;;;;;;20.74;100.00;99414.47;5028337;28;19928;-39
2022/06/02 07:09:22;;;;;;;;;;;;;;;21.02;100.00;99417.84;5010744;28;19960;-39
2022/06/02 07:15:06;;;;;;;;;;;;;;;21.18;100.00;99417.63;5011628;28;20052;-39
2022/06/02 07:17:45;;;;;;;;;;;;;;;21.85;97.53;99422.50;4955732;28;19918;-39
2022/06/02 07:20:20;;;;;;;;;;;;;;;21.39;99.75;99421.34;5032117;28;19924;-39
2022/06/02 07:22:47;;;;;;;;;;;;;;;20.93;100.00;99421.91;5032171;28;19963;-39
2022/06/02 07:25:21;;;;;;;;;;;;;;;20.81;100.00;99422.75;5015577;28;19917;-39
2022/06/02 07:28:01;;;;;;;;;;;;;;;20.17;100.00;99440.91;5031065;28;19916;-39
2022/06/02 07:30:43;;;;;;;;;;;;;;;20.65;100.00;99436.03;5015325;28;19924;-39
2022/06/02 07:33:11;;;;;;;;;;;;;;;21.40;100.00;99435.31;5014510;28;19960;-39
2022/06/02 07:35:42;;;;;;;;;;;;;;;21.95;97.49;99431.41;5031904;28;19913;-39
2022/06/02 07:38:14;;;;;;;;;;;;;;;22.03;94.09;99426.47;5035121;28;19920;-39
2022/06/02 07:40:51;;;;;;;;;;;;;;;22.13;94.67;99435.31;5037071;28;19920;-39
2022/06/02 07:43:23;;;;;;;;;;;;;;;22.28;93.38;99443.03;5034397;28;19924;-39
2022/06/02 07:45:55;;;;;;;;;;;;;;;20.78;98.98;99452.59;5032868;28;19937;-39
2022/06/02 07:48:24;;;;;;;;;;;;;;;20.39;100.00;99459.50;5030965;28;19921;-39
2022/06/02 07:51:11;;;;;;;;;;;;;;;18.81;100.00;99459.63;5015014;28;19921;-39
2022/06/02 07:54:09;;;;;;;;;;;;;;;20.14;100.00;99456.78;5032281;28;19931;-40
2022/06/02 07:56:49;;;;;;;;;;;;;;;21.33;100.00;99453.22;4979759;28;19967;-39
2022/06/02 07:59:39;;;;;;;;;;;;;;;21.31;100.00;99455.94;5013559;28;19930;-39
2022/06/02 08:02:28;;;;;;;;;;;;;;;20.53;100.00;99461.22;5016552;28;19922;-39
2022/06/02 08:05:08;;;;;;;;;;;;;;;21.66;98.49;99455.28;5000873;28;19960;-39
2022/06/02 08:07:36;;;;;;;;;;;;;;;23.40;91.23;99453.00;5030039;28;19923;-39
2022/06/02 08:10:04;;;;;;;;;;;;;;;23.36;86.64;99449.75;5029937;28;20007;-39
2022/06/02 08:12:48;;;;;;;;;;;;;;;21.67;89.79;99456.97;5033769;28;19924;-39
2022/06/02 08:15:13;;;;;;;;;;;;;;;23.71;85.70;99447.94;5032255;28;19916;-39
2022/06/02 08:17:41;;;;;;;;;;;;;;;22.17;93.96;99469.19;5028291;28;19928;-39
2022/06/02 08:20:15;;;;;;;;;;;;;;;21.33;89.91;99470.75;5030516;28;19917;-39
2022/06/02 08:22:44;;;;;;;;;;;;;;;20.78;94.80;99472.72;5014006;28;20414;-39
2022/06/02 08:25:13;;;;;;;;;;;;;;;22.26;91.56;99468.53;5032608;28;19920;-39
2022/06/02 08:27:58;;;;;;;;;;;;;;;22.09;88.78;99473.19;5028110;28;20859;-39
2022/06/02 08:30:42;;;;;;;;;;;;;;;23.34;85.88;99474.50;5030222;28;19917;-39
2022/06/02 08:33:09;;;;;;;;;;;;;;;22.21;91.04;99475.88;5032420;28;20020;-39
2022/06/02 08:35:34;;;;;;;;;;;;;;;21.04;98.41;99486.66;5012045;28;19917;-39
2022/06/02 08:38:11;;;;;;;;;;;;;;;21.23;98.46;99487.09;5029277;28;19971;-40
2022/06/02 08:40:55;;;;;;;;;;;;;;;20.83;98.61;99488.94;5011341;28;19917;-40
2022/06/02 08:43:29;;;;;;;;;;;;;;;21.88;91.61;99485.25;5024426;28;20540;-39
2022/06/02 08:46:03;;;;;;;;;;;;;;;22.12;90.95;99485.25;5028109;28;19917;-39
2022/06/02 08:48:47;;;;;;;;;;;;;;;22.67;87.36;99478.63;5031950;28;19927;-40
2022/06/02 08:51:31;;;;;;;;;;;;;;;21.65;88.00;99485.09;5031892;28;19917;-39
2022/06/02 08:53:59;;;;;;;;;;;;;;;23.07;86.39;99475.66;5029269;28;19924;-39
2022/06/02 08:56:25;;;;;;;;;;;;;;;22.73;88.13;99490.47;5027379;28;19921;-39
2022/06/02 08:58:56;;;;;;;;;;;;;;;21.50;92.80;99494.00;5029687;28;19931;-39
2022/06/02 09:01:27;;;;;;;;;;;;;;;21.71;96.86;99494.28;5031602;28;19917;-39
2022/06/02 09:04:22;;;;;;;;;;;;;;;22.97;95.71;99486.00;5027294;28;20003;-39
2022/06/02 09:06:54;;;;;;;;;;;;;;;22.87;85.89;99495.50;5014413;28;19931;-39
2022/06/02 09:09:29;;;;;;;;;;;;;;;24.62;78.87;99481.78;5011823;28;20020;-39
2022/06/02 09:12:12;;;;;;;;;;;;;;;24.46;75.07;99475.28;5027563;28;20298;-39
2022/06/02 09:14:56;;;;;;;;;;;;;;;25.27;74.15;99475.56;5029259;28;19957;-39
2022/06/02 09:17:27;;;;;;;;;;;;;;;24.34;67.05;99480.59;5028874;28;20004;-39
2022/06/02 09:20:12;;;;;;;;;;;;;;;24.83;64.62;99486.25;5030743;28;20087;-39
2022/06/02 09:22:47;;;;;;;;;;;;;;;25.39;60.84;99475.38;5027521;28;20027;-39
2022/06/02 09:25:33;;;;;;;;;;;;;;;24.52;73.38;99475.63;5013680;28;19956;-39
2022/06/02 09:28:04;;;;;;;;;;;;;;;24.12;74.09;99478.84;5002893;28;19917;-39
2022/06/02 09:30:37;;;;;;;;;;;;;;;24.21;74.21;99474.63;5012172;28;19920;-39
2022/06/02 09:33:33;;;;;;;;;;;;;;;24.43;65.78;99477.19;5030183;28;20328;-39
2022/06/02 09:36:16;;;;;;;;;;;;;;;25.47;65.97;99482.59;5031138;28;20487;-39
2022/06/02 09:39:01;;;;;;;;;;;;;;;24.29;79.62;99495.06;4995006;28;20069;-39
2022/06/02 09:41:48;;;;;;;;;;;;;;;22.05;90.92;99497.97;5031439;28;20334;-39
2022/06/02 09:44:20;;;;;;;;;;;;;;;20.97;89.88;99501.09;5013551;28;19917;-39
2022/06/02 09:46:54;;;;;;;;;;;;;;;23.15;80.24;99483.78;5012240;28;20429;-39
2022/06/02 09:49:33;;;;;;;;;;;;;;;23.27;79.17;99492.53;5016435;28;19931;-39
2022/06/02 09:52:02;;;;;;;;;;;;;;;22.71;80.55;99484.47;5015558;28;20599;-39
2022/06/02 09:54:33;;;;;;;;;;;;;;;21.37;88.03;99496.63;5035380;28;19971;-39
2022/06/02 10:00:27;;;;;;;;;;;;;;;20.84;90.80;99487.97;5029148;28;20372;-39
2022/06/02 10:03:11;;;;;;;;;;;;;;;22.31;86.52;99492.69;5012373;28;19921;-39
2022/06/02 10:05:36;;;;;;;;;;;;;;;24.08;83.32;99490.56;5016390;28;19956;-39
2022/06/02 10:08:04;;;;;;;;;;;;;;;24.73;81.74;99485.34;5030021;28;20056;-39
2022/06/02 10:10:33;;;;;;;;;;;;;;;25.93;71.51;99480.41;5033304;28;19916;-39
2022/06/02 10:12:59;;;;;;;;;;;;;;;25.38;59.63;99478.94;5029127;28;19931;-39
2022/06/02 10:15:35;;;;;;;;;;;;;;;25.19;75.08;99484.16;5027314;28;19925;-39
2022/06/02 10:18:02;;;;;;;;;;;;;;;25.80;62.50;99483.28;5030095;28;19971;-39
2022/06/02 10:20:37;;;;;;;;;;;;;;;25.65;65.84;99480.16;5013789;28;19924;-39
2022/06/02 10:23:22;;;;;;;;;;;;;;;25.17;60.37;99480.78;5015541;28;19929;-39
2022/06/02 10:25:53;;;;;;;;;;;;;;;26.37;64.82;99484.38;5033231;28;20138;-39
2022/06/02 10:28:35;;;;;;;;;;;;;;;24.89;66.43;99492.81;5027652;28;19928;-39
2022/06/02 10:31:20;;;;;;;;;;;;;;;25.04;57.28;99491.50;5010877;28;20428;-39
2022/06/02 10:34:04;;;;;;;;;;;;;;;24.75;54.78;99488.69;5011138;28;19979;-39
2022/06/02 10:36:35;;;;;;;;;;;;;;;24.27;68.75;99491.72;5031379;28;19916;-39
2022/06/02 10:39:01;;;;;;;;;;;;;;;23.94;61.56;99485.59;5033070;28;19917;-39
2022/06/02 10:41:52;;;;;;;;;;;;;;;21.83;70.68;99495.22;5029982;28;20385;-39
2022/06/02 10:44:21;;;;;;;;;;;;;;;23.68;68.34;99474.47;5013337;28;20059;-39
2022/06/02 10:46:56;;;;;;;;;;;;;;;25.28;58.12;99475.44;5029301;28;19999;-39
2022/06/02 10:49:26;;;;;;;;;;;;;;;25.65;52.17;99480.16;5026445;28;19917;-39
2022/06/02 10:51:53;;;;;;;;;;;;;;;26.89;50.48;99473.50;5026693;28;19916;-39
2022/06/02 10:54:34;;;;;;;;;;;;;;;26.55;46.95;99470.47;5031451;28;21015;-39
2022/06/02 10:57:08;;;;;;;;;;;;;;;26.85;47.33;99469.50;5026357;28;20505;-37
2022/06/02 10:59:33;;;;;;;;;;;;;;;25.59;55.46;99472.78;5027285;28;20370;-37
2022/06/02 11:02:11;;;;;;;;;;;;;;;25.90;62.12;99475.41;5030981;28;19972;-38
2022/06/02 11:05:01;;;;;;;;;;;;;;;25.74;48.99;99466.19;5035337;28;19917;-38
2022/06/02 11:07:51;;;;;;;;;;;;;;;25.46;64.70;99471.22;5008523;28;19924;-38
2022/06/02 11:10:22;;;;;;;;;;;;;;;25.39;62.63;99470.09;5018216;28;19917;-39
2022/06/02 11:12:53;;;;;;;;;;;;;;;26.39;59.15;99466.59;5022873;28;20352;-38
2022/06/02 11:15:18;;;;;;;;;;;;;;;27.37;53.67;99454.06;5010188;28;19917;-39
2022/06/02 11:17:48;;;;;;;;;;;;;;;26.52;47.59;99458.38;5029373;28;19919;-38
2022/06/02 11:20:16;;;;;;;;;;;;;;;26.27;47.06;99455.34;5009473;28;19918;-39
2022/06/02 11:22:49;;;;;;;;;;;;;;;26.31;52.97;99460.31;5025495;28;19917;-38
2022/06/02 11:25:18;;;;;;;;;;;;;;;26.61;51.72;99452.28;5009691;28;19917;-39
2022/06/02 11:28:06;;;;;;;;;;;;;;;26.62;47.27;99451.31;5011692;28;19928;-39
2022/06/02 11:30:31;;;;;;;;;;;;;;;26.65;50.26;99448.38;5011684;28;19920;-39
2022/06/02 11:33:02;;;;;;;;;;;;;;;27.01;50.84;99438.00;5027838;28;19921;-39
2022/06/02 11:35:46;;;;;;;;;;;;;;;26.62;49.44;99443.38;5030365;28;19991;-39
2022/06/02 11:38:25;;;;;;;;;;;;;;;26.54;49.62;99442.38;5034749;28;19972;-39
2022/06/02 11:40:50;;;;;;;;;;;;;;;28.18;45.87;99432.16;5015619;28;19942;-39
2022/06/02 11:43:16;;;;;;;;;;;;;;;26.66;48.04;99436.84;5031263;28;19927;-39
2022/06/02 11:46:00;;;;;;;;;;;;;;;28.40;43.55;99427.38;5030716;28;19957;-39
2022/06/02 11:48:26;;;;;;;;;;;;;;;27.36;44.79;99430.41;5032198;28;19913;-39
2022/06/02 11:51:03;;;;;;;;;;;;;;;28.14;43.06;99422.84;5036106;28;19926;-39
2022/06/02 11:53:33;;;;;;;;;;;;;;;28.48;41.81;99428.28;5031164;28;20035;-39
2022/06/02 11:55:58;;;;;;;;;;;;;;;28.69;39.06;99409.41;5018101;28;19921;-39
2022/06/02 11:58:47;;;;;;;;;;;;;;;26.79;40.35;99411.91;5012022;28;19923;-39
2022/06/02 12:01:17;;;;;;;;;;;;;;;29.80;43.41;99411.28;5024567;28;19917;-39
2022/06/02 12:03:45;;;;;;;;;;;;;;;28.16;44.12;99408.44;5016043;28;20416;-39
2022/06/02 12:06:10;;;;;;;;;;;;;;;26.24;52.34;99423.91;5039932;28;20594;-39
2022/06/02 12:08:45;;;;;;;;;;;;;;;28.24;44.90;99418.31;5030293;28;19923;-39
2022/06/02 12:11:28;;;;;;;;;;;;;;;27.33;49.95;99413.84;5036942;28;19917;-39
2022/06/02 12:14:12;;;;;;;;;;;;;;;27.89;47.46;99411.19;5031316;28;20974;-39
2022/06/02 12:16:38;;;;;;;;;;;;;;;29.29;46.90;99415.75;5035400;28;19916;-39
2022/06/02 12:19:20;;;;;;;;;;;;;;;30.48;38.53;99412.84;5036190;28;19916;-39
2022/06/02 12:22:04;;;;;;;;;;;;;;;30.39;37.38;99414.66;5034599;28;19924;-39
2022/06/02 12:24:39;;;;;;;;;;;;;;;30.57;40.26;99417.16;5032470;28;19917;-39
2022/06/02 12:27:23;;;;;;;;;;;;;;;29.49;36.93;99417.13;5033792;28;20397;-39
2022/06/02 12:30:03;;;;;;;;;;;;;;;30.96;39.42;99419.09;5034509;28;20027;-39
2022/06/02 12:32:47;;;;;;;;;;;;;;;31.77;39.05;99417.13;5029772;28;19967;-39
2022/06/02 12:35:34;;;;;;;;;;;;;;;30.49;37.70;99421.66;5034027;28;20866;-39
2022/06/02 12:38:08;;;;;;;;;;;;;;;31.39;37.88;99413.47;5015776;28;20482;-39
2022/06/02 12:40:39;;;;;;;;;;;;;;;30.12;34.96;99414.97;5035466;28;19916;-39
2022/06/02 12:43:07;;;;;;;;;;;;;;;32.37;38.60;99415.56;5034422;28;19979;-39
2022/06/02 12:45:42;;;;;;;;;;;;;;;29.70;35.95;99423.88;5040438;28;19921;-39
2022/06/02 12:48:07;;;;;;;;;;;;;;;32.25;35.25;99422.31;5033448;28;20008;-39
2022/06/02 12:50:40;;;;;;;;;;;;;;;28.87;40.55;99430.53;5034959;28;20051;-39
2022/06/02 12:53:10;;;;;;;;;;;;;;;29.35;35.42;99415.06;5012835;28;19980;-39
2022/06/02 12:55:43;;;;;;;;;;;;;;;30.61;37.14;99415.00;5019595;28;20421;-39
2022/06/02 12:58:09;;;;;;;;;;;;;;;32.42;33.75;99410.50;5018922;28;19920;-39
2022/06/02 13:00:40;;;;;;;;;;;;;;;34.05;34.65;99403.44;5032343;28;20390;-39
2022/06/02 13:03:20;;;;;;;;;;;;;;;33.81;34.92;99408.13;5033563;28;20520;-39
2022/06/02 13:06:04;;;;;;;;;;;;;;;33.22;35.10;99401.06;5037030;28;19960;-39
2022/06/02 13:08:41;;;;;;;;;;;;;;;33.13;33.25;99405.66;5032381;28;19970;-39
2022/06/02 13:11:13;;;;;;;;;;;;;;;32.33;35.13;99408.09;5015292;28;19967;-39
2022/06/02 13:13:57;;;;;;;;;;;;;;;30.56;34.73;99409.34;5013286;28;20039;-39
2022/06/02 13:16:34;;;;;;;;;;;;;;;30.71;35.51;99397.03;5034056;28;20003;-39
2022/06/02 13:19:19;;;;;;;;;;;;;;;31.27;34.27;99392.56;5012891;28;19928;-39
2022/06/02 13:21:56;;;;;;;;;;;;;;;33.36;34.24;99387.88;5030454;28;20508;-39
2022/06/02 13:24:24;;;;;;;;;;;;;;;32.41;33.83;99390.22;5027280;28;19992;-39
2022/06/02 13:26:55;;;;;;;;;;;;;;;30.30;34.96;99399.72;5027973;28;19925;-39
2022/06/02 13:29:39;;;;;;;;;;;;;;;29.28;36.89;99403.44;5029019;28;19940;-39
2022/06/02 13:32:04;;;;;;;;;;;;;;;29.26;36.93;99394.81;5035119;28;20025;-39
2022/06/02 13:34:29;;;;;;;;;;;;;;;28.22;39.38;99404.38;5032689;28;19925;-39